Huvudsida
METAR-TAF:

METAR-TAF

Flygplatser :

Rigas internationella flygplats

Riga, Lettland

latitud: 56-55N, longitud: 023-58E, höjd: 10 m

Aktuellt väderrapport

Denna rapport gjordes för 30 minuter sedan, klockan 07:20 UTC
Vind 3 kt från sydväst, varierande mellan syd och väst
Temperatur 7°C
Fuktighet 76%
Tryck 1024 hPa
Sikt 10 km eller mer
Få moln på en höjd av 4000 ft
Spridda moln på en höjd av 4600 ft

METAR: EVRA 230720Z 22003KT 170V260 9999 FEW040 SCT046 07/03 Q1024 NOSIG

Tid: 10:50 (07:50 UTC)

Väderprognos

Denna rapport gjordes för 2 timmar och 50 minuter sedan, klockan 05:00 UTC
Prognos gäller från 23 kl. 06 UTC till 24 kl. 06 UTC
Vind 2 kt varierande vindriktning
Sikt 10 km eller mer
Inga moln under 1 500 m eller inga cumulonimbus
Temporärt
från 23 kl. 20 UTC till 24 kl. 03 UTC
Sikt: 1500 m
grunt dimma, fuktdis

TAF: EVRA 230500Z 2306/2406 VRB02KT CAVOK TEMPO 2320/2403 1500 MIFG BR

Aktuella väderrapporter och prognoser från 4000 flygplatser (METAR- och TAF-rapporter).

De tillgängliga stationerna syns som gula och röda prickar på kartan.

För musen över prickarna för att se namnen på stationerna.

Klicka sedan för att få väderrapporter och prognoser.

För att ändra kartan: Klicka på de gröna knapparna med ett svart kors på för att zooma in; den gröna knappen med ett streck på för att zooma ut; eller på de gröna pilarna för angränsande kartor.


METAR-TAF: